sensor_id;sensor_type;location;lat;lon;timestamp;temperature;humidity
9271;DHT22;4673;53.458;9.940;2023-03-01T00:01:07;-2.00;79.80
9271;DHT22;4673;53.458;9.940;2023-03-01T00:03:33;-2.00;79.70
9271;DHT22;4673;53.458;9.940;2023-03-01T00:06:00;-2.10;79.60
9271;DHT22;4673;53.458;9.940;2023-03-01T00:08:26;-2.10;79.70
9271;DHT22;4673;53.458;9.940;2023-03-01T00:11:19;-2.10;79.80
9271;DHT22;4673;53.458;9.940;2023-03-01T00:13:47;-2.10;79.90
9271;DHT22;4673;53.458;9.940;2023-03-01T00:16:22;-2.20;80.10
9271;DHT22;4673;53.458;9.940;2023-03-01T00:18:48;-2.10;80.40
9271;DHT22;4673;53.458;9.940;2023-03-01T00:21:14;-2.10;80.50
9271;DHT22;4673;53.458;9.940;2023-03-01T00:23:40;-2.10;80.50
9271;DHT22;4673;53.458;9.940;2023-03-01T00:26:08;-2.10;80.70
9271;DHT22;4673;53.458;9.940;2023-03-01T00:28:34;-2.10;80.60
9271;DHT22;4673;53.458;9.940;2023-03-01T00:31:11;-2.10;80.60
9271;DHT22;4673;53.458;9.940;2023-03-01T00:33:36;-2.10;80.60
9271;DHT22;4673;53.458;9.940;2023-03-01T00:36:03;-2.10;80.60
9271;DHT22;4673;53.458;9.940;2023-03-01T00:38:29;-2.10;80.50
9271;DHT22;4673;53.458;9.940;2023-03-01T00:40:55;-2.20;80.60
9271;DHT22;4673;53.458;9.940;2023-03-01T00:43:21;-2.20;80.90
9271;DHT22;4673;53.458;9.940;2023-03-01T00:45:46;-2.20;81.00
9271;DHT22;4673;53.458;9.940;2023-03-01T00:48:12;-2.20;80.90
9271;DHT22;4673;53.458;9.940;2023-03-01T00:50:38;-2.20;80.80
9271;DHT22;4673;53.458;9.940;2023-03-01T00:53:03;-2.20;80.90
9271;DHT22;4673;53.458;9.940;2023-03-01T00:55:30;-2.20;81.00
9271;DHT22;4673;53.458;9.940;2023-03-01T00:57:56;-2.30;81.10
9271;DHT22;4673;53.458;9.940;2023-03-01T01:00:22;-2.30;81.10
9271;DHT22;4673;53.458;9.940;2023-03-01T01:02:48;-2.20;81.20
9271;DHT22;4673;53.458;9.940;2023-03-01T01:05:14;-2.20;81.40
9271;DHT22;4673;53.458;9.940;2023-03-01T01:07:40;-2.20;81.40
9271;DHT22;4673;53.458;9.940;2023-03-01T01:10:06;-2.20;81.50
9271;DHT22;4673;53.458;9.940;2023-03-01T01:12:32;-2.20;81.30
9271;DHT22;4673;53.458;9.940;2023-03-01T01:14:58;-2.20;81.20
9271;DHT22;4673;53.458;9.940;2023-03-01T01:17:23;-2.20;81.20
9271;DHT22;4673;53.458;9.940;2023-03-01T01:19:49;-2.20;81.30
9271;DHT22;4673;53.458;9.940;2023-03-01T01:22:15;-2.20;81.30
9271;DHT22;4673;53.458;9.940;2023-03-01T01:24:40;-2.10;81.50
9271;DHT22;4673;53.458;9.940;2023-03-01T01:27:06;-2.10;81.20
9271;DHT22;4673;53.458;9.940;2023-03-01T01:29:32;-2.00;81.10
9271;DHT22;4673;53.458;9.940;2023-03-01T01:31:58;-2.10;81.00
9271;DHT22;4673;53.458;9.940;2023-03-01T01:34:24;-2.10;81.10
9271;DHT22;4673;53.458;9.940;2023-03-01T01:36:52;-2.20;81.00
9271;DHT22;4673;53.458;9.940;2023-03-01T01:39:21;-2.20;81.10
9271;DHT22;4673;53.458;9.940;2023-03-01T01:41:47;-2.20;80.90
9271;DHT22;4673;53.458;9.940;2023-03-01T01:46:57;-2.20;81.20
9271;DHT22;4673;53.458;9.940;2023-03-01T01:49:47;-2.20;81.30
9271;DHT22;4673;53.458;9.940;2023-03-01T01:52:24;-2.20;81.70
9271;DHT22;4673;53.458;9.940;2023-03-01T01:54:55;-2.10;81.70
9271;DHT22;4673;53.458;9.940;2023-03-01T01:57:29;-2.10;81.60
9271;DHT22;4673;53.458;9.940;2023-03-01T02:00:00;-2.20;81.50
9271;DHT22;4673;53.458;9.940;2023-03-01T02:02:28;-2.20;81.60
9271;DHT22;4673;53.458;9.940;2023-03-01T02:05:03;-2.20;81.60
9271;DHT22;4673;53.458;9.940;2023-03-01T02:07:38;-2.20;81.70
9271;DHT22;4673;53.458;9.940;2023-03-01T02:10:05;-2.30;82.00
9271;DHT22;4673;53.458;9.940;2023-03-01T02:12:31;-2.20;82.30
9271;DHT22;4673;53.458;9.940;2023-03-01T02:14:57;-2.20;82.30
9271;DHT22;4673;53.458;9.940;2023-03-01T02:17:23;-2.20;82.20
9271;DHT22;4673;53.458;9.940;2023-03-01T02:20:15;-2.10;82.30
9271;DHT22;4673;53.458;9.940;2023-03-01T02:22:46;-2.10;82.20
9271;DHT22;4673;53.458;9.940;2023-03-01T02:30:45;-2.10;82.30
9271;DHT22;4673;53.458;9.940;2023-03-01T02:33:32;-2.10;82.20
9271;DHT22;4673;53.458;9.940;2023-03-01T02:36:04;-2.10;82.30
9271;DHT22;4673;53.458;9.940;2023-03-01T02:38:32;-2.10;82.40
9271;DHT22;4673;53.458;9.940;2023-03-01T02:40:58;-2.10;82.40
9271;DHT22;4673;53.458;9.940;2023-03-01T02:43:29;-2.10;82.40
9271;DHT22;4673;53.458;9.940;2023-03-01T02:45:58;-2.10;82.60
9271;DHT22;4673;53.458;9.940;2023-03-01T02:48:24;-2.10;82.70
9271;DHT22;4673;53.458;9.940;2023-03-01T02:51:04;-2.00;82.60
9271;DHT22;4673;53.458;9.940;2023-03-01T02:53:42;-2.00;82.50
9271;DHT22;4673;53.458;9.940;2023-03-01T02:56:12;-2.00;82.40
9271;DHT22;4673;53.458;9.940;2023-03-01T02:58:40;-1.90;82.50
9271;DHT22;4673;53.458;9.940;2023-03-01T03:01:11;-1.90;82.60
9271;DHT22;4673;53.458;9.940;2023-03-01T03:03:39;-1.90;82.50
9271;DHT22;4673;53.458;9.940;2023-03-01T03:06:04;-1.80;82.40
9271;DHT22;4673;53.458;9.940;2023-03-01T03:08:30;-1.90;82.50
9271;DHT22;4673;53.458;9.940;2023-03-01T03:10:56;-1.80;82.60
9271;DHT22;4673;53.458;9.940;2023-03-01T03:13:21;-1.70;82.50
9271;DHT22;4673;53.458;9.940;2023-03-01T03:15:47;-1.70;82.40
9271;DHT22;4673;53.458;9.940;2023-03-01T03:18:16;-1.70;82.50
9271;DHT22;4673;53.458;9.940;2023-03-01T03:20:42;-1.70;82.40
9271;DHT22;4673;53.458;9.940;2023-03-01T03:23:08;-1.60;82.40
9271;DHT22;4673;53.458;9.940;2023-03-01T03:25:34;-1.60;82.50
9271;DHT22;4673;53.458;9.940;2023-03-01T03:28:04;-1.60;82.30
9271;DHT22;4673;53.458;9.940;2023-03-01T03:30:36;-1.60;82.30
9271;DHT22;4673;53.458;9.940;2023-03-01T03:33:05;-1.60;82.20
9271;DHT22;4673;53.458;9.940;2023-03-01T03:35:38;-1.50;82.20
9271;DHT22;4673;53.458;9.940;2023-03-01T03:38:07;-1.50;81.90
9271;DHT22;4673;53.458;9.940;2023-03-01T03:40:38;-1.40;81.40
9271;DHT22;4673;53.458;9.940;2023-03-01T03:43:08;-1.30;81.20
9271;DHT22;4673;53.458;9.940;2023-03-01T03:45:34;-1.40;80.80
9271;DHT22;4673;53.458;9.940;2023-03-01T03:48:01;-1.40;80.80
9271;DHT22;4673;53.458;9.940;2023-03-01T03:50:27;-1.50;80.90
9271;DHT22;4673;53.458;9.940;2023-03-01T03:52:53;-1.40;81.00
9271;DHT22;4673;53.458;9.940;2023-03-01T03:55:19;-1.40;80.90
9271;DHT22;4673;53.458;9.940;2023-03-01T03:57:48;-1.30;80.80
9271;DHT22;4673;53.458;9.940;2023-03-01T04:00:21;-1.20;80.80
9271;DHT22;4673;53.458;9.940;2023-03-01T04:02:49;-1.10;80.80
9271;DHT22;4673;53.458;9.940;2023-03-01T04:05:17;-1.00;80.90
9271;DHT22;4673;53.458;9.940;2023-03-01T04:07:43;-0.80;80.80
9271;DHT22;4673;53.458;9.940;2023-03-01T04:10:13;-0.70;80.70
9271;DHT22;4673;53.458;9.940;2023-03-01T04:12:39;-0.60;80.30
9271;DHT22;4673;53.458;9.940;2023-03-01T04:15:07;-0.40;80.10
9271;DHT22;4673;53.458;9.940;2023-03-01T04:17:43;-0.30;79.80
9271;DHT22;4673;53.458;9.940;2023-03-01T04:20:17;-0.20;79.20
9271;DHT22;4673;53.458;9.940;2023-03-01T04:22:43;-0.10;78.30
9271;DHT22;4673;53.458;9.940;2023-03-01T04:25:12;0.10;78.10
9271;DHT22;4673;53.458;9.940;2023-03-01T04:27:40;0.20;77.20
9271;DHT22;4673;53.458;9.940;2023-03-01T04:30:08;0.30;76.60
9271;DHT22;4673;53.458;9.940;2023-03-01T04:32:34;0.40;76.10
9271;DHT22;4673;53.458;9.940;2023-03-01T04:35:00;0.50;75.80
9271;DHT22;4673;53.458;9.940;2023-03-01T04:37:26;0.50;75.60
9271;DHT22;4673;53.458;9.940;2023-03-01T04:39:52;0.60;75.20
9271;DHT22;4673;53.458;9.940;2023-03-01T04:42:18;0.70;74.80
9271;DHT22;4673;53.458;9.940;2023-03-01T04:44:45;0.80;74.50
9271;DHT22;4673;53.458;9.940;2023-03-01T04:47:11;0.80;74.00
9271;DHT22;4673;53.458;9.940;2023-03-01T04:49:37;0.90;73.60
9271;DHT22;4673;53.458;9.940;2023-03-01T04:52:03;0.90;72.80
9271;DHT22;4673;53.458;9.940;2023-03-01T04:54:30;0.90;71.70
9271;DHT22;4673;53.458;9.940;2023-03-01T04:56:56;1.00;71.60
9271;DHT22;4673;53.458;9.940;2023-03-01T04:59:22;0.90;70.70
9271;DHT22;4673;53.458;9.940;2023-03-01T05:01:48;0.90;70.60
9271;DHT22;4673;53.458;9.940;2023-03-01T05:04:14;1.00;70.70
9271;DHT22;4673;53.458;9.940;2023-03-01T05:06:40;1.10;71.10
9271;DHT22;4673;53.458;9.940;2023-03-01T05:09:06;1.10;71.10
9271;DHT22;4673;53.458;9.940;2023-03-01T05:11:36;1.20;71.00
9271;DHT22;4673;53.458;9.940;2023-03-01T05:14:03;1.20;71.00
9271;DHT22;4673;53.458;9.940;2023-03-01T05:16:29;1.20;70.60
9271;DHT22;4673;53.458;9.940;2023-03-01T05:18:56;1.20;70.50
9271;DHT22;4673;53.458;9.940;2023-03-01T05:21:22;1.30;70.70
9271;DHT22;4673;53.458;9.940;2023-03-01T05:23:47;1.20;70.50
9271;DHT22;4673;53.458;9.940;2023-03-01T05:26:15;1.30;70.60
9271;DHT22;4673;53.458;9.940;2023-03-01T05:28:41;1.30;70.50
9271;DHT22;4673;53.458;9.940;2023-03-01T05:31:07;1.30;70.40
9271;DHT22;4673;53.458;9.940;2023-03-01T05:33:39;1.30;69.60
9271;DHT22;4673;53.458;9.940;2023-03-01T05:36:08;1.20;69.70
9271;DHT22;4673;53.458;9.940;2023-03-01T05:38:35;1.30;69.90
9271;DHT22;4673;53.458;9.940;2023-03-01T05:41:01;1.20;69.30
9271;DHT22;4673;53.458;9.940;2023-03-01T05:43:30;1.20;69.40
9271;DHT22;4673;53.458;9.940;2023-03-01T05:45:59;1.20;69.90
9271;DHT22;4673;53.458;9.940;2023-03-01T05:48:25;1.30;70.00
9271;DHT22;4673;53.458;9.940;2023-03-01T05:50:51;1.30;70.10
9271;DHT22;4673;53.458;9.940;2023-03-01T05:53:19;1.40;70.10
9271;DHT22;4673;53.458;9.940;2023-03-01T05:55:47;1.40;70.10
9271;DHT22;4673;53.458;9.940;2023-03-01T05:58:18;1.50;69.80
9271;DHT22;4673;53.458;9.940;2023-03-01T06:00:46;1.50;69.60
9271;DHT22;4673;53.458;9.940;2023-03-01T06:03:14;1.50;69.80
9271;DHT22;4673;53.458;9.940;2023-03-01T06:05:41;1.60;69.80
9271;DHT22;4673;53.458;9.940;2023-03-01T06:08:07;1.60;70.10
9271;DHT22;4673;53.458;9.940;2023-03-01T06:10:32;1.60;70.00
9271;DHT22;4673;53.458;9.940;2023-03-01T06:12:58;1.60;70.00
9271;DHT22;4673;53.458;9.940;2023-03-01T06:15:25;1.60;69.90
9271;DHT22;4673;53.458;9.940;2023-03-01T06:17:51;1.60;69.60
9271;DHT22;4673;53.458;9.940;2023-03-01T06:20:19;1.60;69.50
9271;DHT22;4673;53.458;9.940;2023-03-01T06:22:46;1.70;69.50
9271;DHT22;4673;53.458;9.940;2023-03-01T06:25:14;1.70;69.50
9271;DHT22;4673;53.458;9.940;2023-03-01T06:27:41;1.80;69.30
9271;DHT22;4673;53.458;9.940;2023-03-01T06:30:08;1.70;69.40
9271;DHT22;4673;53.458;9.940;2023-03-01T06:32:35;1.80;69.10
9271;DHT22;4673;53.458;9.940;2023-03-01T06:35:00;1.80;69.20
9271;DHT22;4673;53.458;9.940;2023-03-01T06:37:26;1.80;69.10
9271;DHT22;4673;53.458;9.940;2023-03-01T06:39:52;1.90;69.00
9271;DHT22;4673;53.458;9.940;2023-03-01T06:42:17;1.90;69.00
9271;DHT22;4673;53.458;9.940;2023-03-01T06:44:44;1.90;68.80
9271;DHT22;4673;53.458;9.940;2023-03-01T06:47:09;2.00;67.80
9271;DHT22;4673;53.458;9.940;2023-03-01T06:49:35;2.00;66.30
9271;DHT22;4673;53.458;9.940;2023-03-01T06:52:01;2.00;66.50
9271;DHT22;4673;53.458;9.940;2023-03-01T06:54:26;2.00;65.80
9271;DHT22;4673;53.458;9.940;2023-03-01T06:56:52;2.10;65.60
9271;DHT22;4673;53.458;9.940;2023-03-01T06:59:17;2.20;64.70
9271;DHT22;4673;53.458;9.940;2023-03-01T07:01:43;2.20;63.90
9271;DHT22;4673;53.458;9.940;2023-03-01T07:04:10;2.20;62.50
9271;DHT22;4673;53.458;9.940;2023-03-01T07:06:35;2.20;63.50
9271;DHT22;4673;53.458;9.940;2023-03-01T07:09:02;2.10;63.60
9271;DHT22;4673;53.458;9.940;2023-03-01T07:11:29;2.00;62.60
9271;DHT22;4673;53.458;9.940;2023-03-01T07:13:54;2.00;62.10
9271;DHT22;4673;53.458;9.940;2023-03-01T07:16:21;1.90;62.40
9271;DHT22;4673;53.458;9.940;2023-03-01T07:18:47;2.00;62.90
9271;DHT22;4673;53.458;9.940;2023-03-01T07:21:14;1.90;62.20
9271;DHT22;4673;53.458;9.940;2023-03-01T07:23:41;1.90;62.00
9271;DHT22;4673;53.458;9.940;2023-03-01T07:26:07;1.90;61.60
9271;DHT22;4673;53.458;9.940;2023-03-01T07:28:32;2.00;61.50
9271;DHT22;4673;53.458;9.940;2023-03-01T07:31:03;2.00;60.90
9271;DHT22;4673;53.458;9.940;2023-03-01T07:33:29;2.00;61.30
9271;DHT22;4673;53.458;9.940;2023-03-01T07:35:59;2.10;61.30
9271;DHT22;4673;53.458;9.940;2023-03-01T07:38:26;2.00;60.80
9271;DHT22;4673;53.458;9.940;2023-03-01T07:40:53;2.20;61.70
9271;DHT22;4673;53.458;9.940;2023-03-01T07:43:18;2.50;61.80
9271;DHT22;4673;53.458;9.940;2023-03-01T07:45:46;2.40;60.20
9271;DHT22;4673;53.458;9.940;2023-03-01T07:48:11;2.30;59.90
9271;DHT22;4673;53.458;9.940;2023-03-01T07:50:37;2.30;60.50
9271;DHT22;4673;53.458;9.940;2023-03-01T07:53:02;2.40;60.70
9271;DHT22;4673;53.458;9.940;2023-03-01T07:55:28;2.70;60.30
9271;DHT22;4673;53.458;9.940;2023-03-01T07:57:54;2.60;59.70
9271;DHT22;4673;53.458;9.940;2023-03-01T08:00:19;2.70;60.00
9271;DHT22;4673;53.458;9.940;2023-03-01T08:02:45;2.70;59.70
9271;DHT22;4673;53.458;9.940;2023-03-01T08:05:11;2.80;59.30
9271;DHT22;4673;53.458;9.940;2023-03-01T08:07:37;2.90;59.50
9271;DHT22;4673;53.458;9.940;2023-03-01T08:10:03;3.00;59.40
9271;DHT22;4673;53.458;9.940;2023-03-01T08:12:29;3.10;59.10
9271;DHT22;4673;53.458;9.940;2023-03-01T08:14:55;3.30;59.00
9271;DHT22;4673;53.458;9.940;2023-03-01T08:17:22;3.50;58.70
9271;DHT22;4673;53.458;9.940;2023-03-01T08:19:48;3.70;57.60
9271;DHT22;4673;53.458;9.940;2023-03-01T08:22:13;3.70;57.80
9271;DHT22;4673;53.458;9.940;2023-03-01T08:24:39;3.80;57.50
9271;DHT22;4673;53.458;9.940;2023-03-01T08:27:05;3.80;56.40
9271;DHT22;4673;53.458;9.940;2023-03-01T08:29:31;3.50;54.90
9271;DHT22;4673;53.458;9.940;2023-03-01T08:31:57;3.40;56.00
9271;DHT22;4673;53.458;9.940;2023-03-01T08:34:23;3.30;55.90
9271;DHT22;4673;53.458;9.940;2023-03-01T08:36:48;3.20;57.00
9271;DHT22;4673;53.458;9.940;2023-03-01T08:39:17;3.20;57.80
9271;DHT22;4673;53.458;9.940;2023-03-01T08:41:43;3.40;58.60
9271;DHT22;4673;53.458;9.940;2023-03-01T08:44:11;3.70;58.20
9271;DHT22;4673;53.458;9.940;2023-03-01T08:46:38;4.00;57.50
9271;DHT22;4673;53.458;9.940;2023-03-01T08:49:18;4.00;56.10
9271;DHT22;4673;53.458;9.940;2023-03-01T08:51:45;3.90;56.20
9271;DHT22;4673;53.458;9.940;2023-03-01T08:54:16;3.80;56.90
9271;DHT22;4673;53.458;9.940;2023-03-01T08:56:43;3.70;56.60
9271;DHT22;4673;53.458;9.940;2023-03-01T08:59:12;3.70;57.60
9271;DHT22;4673;53.458;9.940;2023-03-01T09:01:38;3.80;57.40
9271;DHT22;4673;53.458;9.940;2023-03-01T09:04:05;3.80;57.50
9271;DHT22;4673;53.458;9.940;2023-03-01T09:06:33;4.00;58.80
9271;DHT22;4673;53.458;9.940;2023-03-01T09:08:59;4.20;58.50
9271;DHT22;4673;53.458;9.940;2023-03-01T09:11:25;4.50;58.80
9271;DHT22;4673;53.458;9.940;2023-03-01T09:13:51;4.60;57.00
9271;DHT22;4673;53.458;9.940;2023-03-01T09:16:19;4.50;57.20
9271;DHT22;4673;53.458;9.940;2023-03-01T09:18:48;4.30;58.20
9271;DHT22;4673;53.458;9.940;2023-03-01T09:21:15;4.20;58.80
9271;DHT22;4673;53.458;9.940;2023-03-01T09:23:43;4.20;58.90
9271;DHT22;4673;53.458;9.940;2023-03-01T09:26:18;4.10;59.00
9271;DHT22;4673;53.458;9.940;2023-03-01T09:28:46;3.90;59.90
9271;DHT22;4673;53.458;9.940;2023-03-01T09:31:12;3.60;60.20
9271;DHT22;4673;53.458;9.940;2023-03-01T09:33:39;3.50;61.40
9271;DHT22;4673;53.458;9.940;2023-03-01T09:36:12;3.60;61.80
9271;DHT22;4673;53.458;9.940;2023-03-01T09:38:38;3.60;62.40
9271;DHT22;4673;53.458;9.940;2023-03-01T09:41:20;3.60;63.20
9271;DHT22;4673;53.458;9.940;2023-03-01T09:43:53;3.80;63.20
9271;DHT22;4673;53.458;9.940;2023-03-01T09:46:24;3.80;62.90
9271;DHT22;4673;53.458;9.940;2023-03-01T09:48:56;3.90;63.10
9271;DHT22;4673;53.458;9.940;2023-03-01T09:51:26;4.00;63.10
9271;DHT22;4673;53.458;9.940;2023-03-01T09:53:55;4.20;62.70
9271;DHT22;4673;53.458;9.940;2023-03-01T09:56:30;4.30;62.60
9271;DHT22;4673;53.458;9.940;2023-03-01T09:59:26;4.40;63.00
9271;DHT22;4673;53.458;9.940;2023-03-01T10:02:24;4.50;62.40
9271;DHT22;4673;53.458;9.940;2023-03-01T10:04:55;4.40;62.60
9271;DHT22;4673;53.458;9.940;2023-03-01T10:07:47;4.50;62.90
9271;DHT22;4673;53.458;9.940;2023-03-01T10:10:31;4.60;63.30
9271;DHT22;4673;53.458;9.940;2023-03-01T10:13:02;4.90;63.30
9271;DHT22;4673;53.458;9.940;2023-03-01T10:15:41;5.10;63.20
9271;DHT22;4673;53.458;9.940;2023-03-01T10:18:20;4.80;63.30
9271;DHT22;4673;53.458;9.940;2023-03-01T10:23:25;4.60;64.50
9271;DHT22;4673;53.458;9.940;2023-03-01T10:26:39;4.60;65.10
9271;DHT22;4673;53.458;9.940;2023-03-01T10:28:44;4.80;65.50
9271;DHT22;4673;53.458;9.940;2023-03-01T10:31:15;5.00;65.30
9271;DHT22;4673;53.458;9.940;2023-03-01T10:33:43;5.10;65.00
9271;DHT22;4673;53.458;9.940;2023-03-01T10:36:09;5.10;64.80
9271;DHT22;4673;53.458;9.940;2023-03-01T10:38:53;4.90;64.70
9271;DHT22;4673;53.458;9.940;2023-03-01T10:41:21;4.80;65.40
9271;DHT22;4673;53.458;9.940;2023-03-01T10:43:55;5.00;66.10
9271;DHT22;4673;53.458;9.940;2023-03-01T10:46:37;5.20;65.90
9271;DHT22;4673;53.458;9.940;2023-03-01T10:51:41;5.30;65.40
9271;DHT22;4673;53.458;9.940;2023-03-01T10:54:23;5.40;65.30
9271;DHT22;4673;53.458;9.940;2023-03-01T10:56:55;5.30;65.60
9271;DHT22;4673;53.458;9.940;2023-03-01T10:59:35;5.40;65.70
9271;DHT22;4673;53.458;9.940;2023-03-01T11:04:38;5.50;65.20
9271;DHT22;4673;53.458;9.940;2023-03-01T11:07:04;5.40;65.70
9271;DHT22;4673;53.458;9.940;2023-03-01T11:09:33;5.50;65.90
9271;DHT22;4673;53.458;9.940;2023-03-01T11:12:13;5.70;65.40
9271;DHT22;4673;53.458;9.940;2023-03-01T11:14:48;5.80;64.90
9271;DHT22;4673;53.458;9.940;2023-03-01T11:17:21;5.80;64.70
9271;DHT22;4673;53.458;9.940;2023-03-01T11:20:34;5.80;64.20
9271;DHT22;4673;53.458;9.940;2023-03-01T11:23:20;5.70;64.80
9271;DHT22;4673;53.458;9.940;2023-03-01T11:25:57;5.50;65.30
9271;DHT22;4673;53.458;9.940;2023-03-01T11:28:35;5.60;65.70
9271;DHT22;4673;53.458;9.940;2023-03-01T11:31:14;5.60;65.90
9271;DHT22;4673;53.458;9.940;2023-03-01T11:33:59;5.70;66.00
9271;DHT22;4673;53.458;9.940;2023-03-01T11:36:32;5.90;66.20
9271;DHT22;4673;53.458;9.940;2023-03-01T11:39:05;5.80;65.60
9271;DHT22;4673;53.458;9.940;2023-03-01T11:41:36;5.90;65.90
9271;DHT22;4673;53.458;9.940;2023-03-01T11:44:25;6.00;65.70
9271;DHT22;4673;53.458;9.940;2023-03-01T11:47:08;6.10;65.80
9271;DHT22;4673;53.458;9.940;2023-03-01T12:11:39;6.20;65.30
9271;DHT22;4673;53.458;9.940;2023-03-01T12:23:04;6.20;65.40
9271;DHT22;4673;53.458;9.940;2023-03-01T12:25:43;6.20;65.60
9271;DHT22;4673;53.458;9.940;2023-03-01T12:42:25;6.50;65.80
9271;DHT22;4673;53.458;9.940;2023-03-01T12:50:26;6.60;65.50
9271;DHT22;4673;53.458;9.940;2023-03-01T12:52:56;6.50;65.90
9271;DHT22;4673;53.458;9.940;2023-03-01T12:55:42;6.60;65.60
9271;DHT22;4673;53.458;9.940;2023-03-01T13:01:25;6.60;66.50
9271;DHT22;4673;53.458;9.940;2023-03-01T13:04:12;6.70;66.20
9271;DHT22;4673;53.458;9.940;2023-03-01T13:12:02;6.80;66.10
9271;DHT22;4673;53.458;9.940;2023-03-01T13:16:56;6.80;66.40
9271;DHT22;4673;53.458;9.940;2023-03-01T13:21:51;6.80;66.30
9271;DHT22;4673;53.458;9.940;2023-03-01T13:24:45;6.80;67.00
9271;DHT22;4673;53.458;9.940;2023-03-01T13:27:21;6.90;67.10
9271;DHT22;4673;53.458;9.940;2023-03-01T13:29:55;6.80;67.40
9271;DHT22;4673;53.458;9.940;2023-03-01T13:32:26;6.90;67.30
9271;DHT22;4673;53.458;9.940;2023-03-01T13:37:42;6.90;67.20
9271;DHT22;4673;53.458;9.940;2023-03-01T13:42:54;7.00;66.60
9271;DHT22;4673;53.458;9.940;2023-03-01T13:48:16;7.20;67.30
9271;DHT22;4673;53.458;9.940;2023-03-01T13:50:53;7.10;66.90
9271;DHT22;4673;53.458;9.940;2023-03-01T13:53:22;7.10;66.30
9271;DHT22;4673;53.458;9.940;2023-03-01T13:56:08;7.10;65.50
9271;DHT22;4673;53.458;9.940;2023-03-01T13:58:52;7.10;65.30
9271;DHT22;4673;53.458;9.940;2023-03-01T14:03:46;6.90;67.60
9271;DHT22;4673;53.458;9.940;2023-03-01T14:06:18;6.90;68.40
9271;DHT22;4673;53.458;9.940;2023-03-01T14:08:46;6.90;68.80
9271;DHT22;4673;53.458;9.940;2023-03-01T14:16:46;6.90;67.70
9271;DHT22;4673;53.458;9.940;2023-03-01T14:19:17;7.00;66.90
9271;DHT22;4673;53.458;9.940;2023-03-01T14:21:46;7.00;66.60
9271;DHT22;4673;53.458;9.940;2023-03-01T14:24:17;7.00;66.10
9271;DHT22;4673;53.458;9.940;2023-03-01T14:26:44;6.80;65.90
9271;DHT22;4673;53.458;9.940;2023-03-01T14:29:35;6.90;66.00
9271;DHT22;4673;53.458;9.940;2023-03-01T14:32:19;6.90;66.20
9271;DHT22;4673;53.458;9.940;2023-03-01T14:34:48;6.90;66.50
9271;DHT22;4673;53.458;9.940;2023-03-01T14:37:27;7.00;67.00
9271;DHT22;4673;53.458;9.940;2023-03-01T14:39:54;7.00;66.70
9271;DHT22;4673;53.458;9.940;2023-03-01T14:42:22;6.90;66.50
9271;DHT22;4673;53.458;9.940;2023-03-01T14:44:50;6.90;66.70
9271;DHT22;4673;53.458;9.940;2023-03-01T14:47:29;6.90;66.70
9271;DHT22;4673;53.458;9.940;2023-03-01T14:52:46;6.80;66.90
9271;DHT22;4673;53.458;9.940;2023-03-01T14:55:21;6.90;67.00
9271;DHT22;4673;53.458;9.940;2023-03-01T14:57:49;6.80;66.60
9271;DHT22;4673;53.458;9.940;2023-03-01T15:00:24;6.80;66.70
9271;DHT22;4673;53.458;9.940;2023-03-01T15:02:52;6.80;66.60
9271;DHT22;4673;53.458;9.940;2023-03-01T15:05:29;6.70;67.10
9271;DHT22;4673;53.458;9.940;2023-03-01T15:07:59;6.70;67.10
9271;DHT22;4673;53.458;9.940;2023-03-01T15:10:32;6.70;67.40
9271;DHT22;4673;53.458;9.940;2023-03-01T15:13:22;6.70;67.70
9271;DHT22;4673;53.458;9.940;2023-03-01T15:15:49;6.60;67.70
9271;DHT22;4673;53.458;9.940;2023-03-01T15:18:25;6.60;67.70
9271;DHT22;4673;53.458;9.940;2023-03-01T15:20:52;6.60;67.70
9271;DHT22;4673;53.458;9.940;2023-03-01T15:23:22;6.60;67.80
9271;DHT22;4673;53.458;9.940;2023-03-01T15:25:49;6.60;67.80
9271;DHT22;4673;53.458;9.940;2023-03-01T15:28:30;6.60;67.70
9271;DHT22;4673;53.458;9.940;2023-03-01T15:33:46;6.60;67.70
9271;DHT22;4673;53.458;9.940;2023-03-01T15:38:58;6.50;67.70
9271;DHT22;4673;53.458;9.940;2023-03-01T15:41:47;6.40;67.60
9271;DHT22;4673;53.458;9.940;2023-03-01T15:44:26;6.40;67.90
9271;DHT22;4673;53.458;9.940;2023-03-01T15:46:52;6.40;68.10
9271;DHT22;4673;53.458;9.940;2023-03-01T15:49:37;6.40;68.10
9271;DHT22;4673;53.458;9.940;2023-03-01T15:52:06;6.30;68.30
9271;DHT22;4673;53.458;9.940;2023-03-01T15:54:35;6.30;68.40
9271;DHT22;4673;53.458;9.940;2023-03-01T15:57:00;6.30;68.60
9271;DHT22;4673;53.458;9.940;2023-03-01T15:59:26;6.20;68.70
9271;DHT22;4673;53.458;9.940;2023-03-01T16:01:52;6.20;68.60
9271;DHT22;4673;53.458;9.940;2023-03-01T16:04:18;6.10;68.70
9271;DHT22;4673;53.458;9.940;2023-03-01T16:06:51;6.10;68.80
9271;DHT22;4673;53.458;9.940;2023-03-01T16:09:24;6.10;69.00
9271;DHT22;4673;53.458;9.940;2023-03-01T16:11:52;6.00;69.10
9271;DHT22;4673;53.458;9.940;2023-03-01T16:14:18;5.90;69.20
9271;DHT22;4673;53.458;9.940;2023-03-01T16:16:45;5.90;69.60
9271;DHT22;4673;53.458;9.940;2023-03-01T16:19:11;5.80;69.70
9271;DHT22;4673;53.458;9.940;2023-03-01T16:21:37;5.80;70.10
9271;DHT22;4673;53.458;9.940;2023-03-01T16:24:03;5.70;70.30
9271;DHT22;4673;53.458;9.940;2023-03-01T16:26:29;5.60;72.10
9271;DHT22;4673;53.458;9.940;2023-03-01T16:28:56;5.50;73.30
9271;DHT22;4673;53.458;9.940;2023-03-01T16:31:22;5.40;73.60
9271;DHT22;4673;53.458;9.940;2023-03-01T16:33:48;5.30;74.30
9271;DHT22;4673;53.458;9.940;2023-03-01T16:36:19;5.20;74.80
9271;DHT22;4673;53.458;9.940;2023-03-01T16:38:45;5.00;76.00
9271;DHT22;4673;53.458;9.940;2023-03-01T16:41:13;4.90;77.20
9271;DHT22;4673;53.458;9.940;2023-03-01T16:43:39;4.80;78.50
9271;DHT22;4673;53.458;9.940;2023-03-01T16:46:27;4.70;79.40
9271;DHT22;4673;53.458;9.940;2023-03-01T16:48:53;4.60;80.00
9271;DHT22;4673;53.458;9.940;2023-03-01T16:51:20;4.50;80.40
9271;DHT22;4673;53.458;9.940;2023-03-01T16:53:47;4.40;80.90
9271;DHT22;4673;53.458;9.940;2023-03-01T16:56:14;4.20;81.20
9271;DHT22;4673;53.458;9.940;2023-03-01T16:58:40;4.20;82.00
9271;DHT22;4673;53.458;9.940;2023-03-01T17:01:11;4.10;82.20
9271;DHT22;4673;53.458;9.940;2023-03-01T17:03:38;4.00;82.40
9271;DHT22;4673;53.458;9.940;2023-03-01T17:06:05;3.90;83.20
9271;DHT22;4673;53.458;9.940;2023-03-01T17:08:32;3.90;83.50
9271;DHT22;4673;53.458;9.940;2023-03-01T17:11:06;3.80;83.70
9271;DHT22;4673;53.458;9.940;2023-03-01T17:13:32;3.70;84.20
9271;DHT22;4673;53.458;9.940;2023-03-01T17:15:58;3.50;84.80
9271;DHT22;4673;53.458;9.940;2023-03-01T17:18:23;3.50;85.30
9271;DHT22;4673;53.458;9.940;2023-03-01T17:20:49;3.50;86.40
9271;DHT22;4673;53.458;9.940;2023-03-01T17:23:15;3.50;86.50
9271;DHT22;4673;53.458;9.940;2023-03-01T17:25:44;3.40;86.40
9271;DHT22;4673;53.458;9.940;2023-03-01T17:28:13;3.40;86.60
9271;DHT22;4673;53.458;9.940;2023-03-01T17:30:45;3.40;87.00
9271;DHT22;4673;53.458;9.940;2023-03-01T17:33:13;3.30;87.20
9271;DHT22;4673;53.458;9.940;2023-03-01T17:35:38;3.20;87.60
9271;DHT22;4673;53.458;9.940;2023-03-01T17:38:05;3.20;88.10
9271;DHT22;4673;53.458;9.940;2023-03-01T17:40:31;3.20;87.90
9271;DHT22;4673;53.458;9.940;2023-03-01T17:42:57;3.00;87.70
9271;DHT22;4673;53.458;9.940;2023-03-01T17:45:23;3.00;87.90
9271;DHT22;4673;53.458;9.940;2023-03-01T17:47:48;2.80;88.00
9271;DHT22;4673;53.458;9.940;2023-03-01T17:50:14;2.70;88.60
9271;DHT22;4673;53.458;9.940;2023-03-01T17:52:40;2.70;89.10
9271;DHT22;4673;53.458;9.940;2023-03-01T17:55:07;2.60;89.60
9271;DHT22;4673;53.458;9.940;2023-03-01T17:57:33;2.50;89.80
9271;DHT22;4673;53.458;9.940;2023-03-01T17:59:59;2.50;90.10
9271;DHT22;4673;53.458;9.940;2023-03-01T18:02:24;2.60;91.10
9271;DHT22;4673;53.458;9.940;2023-03-01T18:04:51;2.50;91.40
9271;DHT22;4673;53.458;9.940;2023-03-01T18:07:18;2.50;91.60
9271;DHT22;4673;53.458;9.940;2023-03-01T18:09:44;2.50;92.00
9271;DHT22;4673;53.458;9.940;2023-03-01T18:12:09;2.50;92.00
9271;DHT22;4673;53.458;9.940;2023-03-01T18:14:36;2.50;92.30